Time;durP1;ratioP1;P1;durP2;ratioP2;P2;SDS_P1;SDS_P2;PMS_P1;PMS_P2;Temp;Humidity;BMP_temperature;BMP_pressure;BME280_temperature;BME280_humidity;BME280_pressure;Samples;Min_cycle;Max_cycle;Signal;HPM_P1;HPM_P2
2021/09/01 00:00:36;;;;;;;;;;;15.80;99.90;;;;;;5089703;27;19931;-83
2021/09/01 00:03:02;;;;;;;;;;;15.80;99.90;;;;;;5078918;27;20329;-84
2021/09/01 00:05:28;;;;;;;;;;;15.80;99.90;;;;;;5104744;27;19933;-84
2021/09/01 00:07:53;;;;;;;;;;;15.70;99.90;;;;;;5111277;27;19921;-84
2021/09/01 00:10:19;;;;;;;;;;;15.80;99.90;;;;;;5085666;27;20389;-84
2021/09/01 00:12:45;;;;;;;;;;;15.80;99.90;;;;;;5132845;27;20341;-84
2021/09/01 00:15:11;;;;;;;;;;;15.80;99.90;;;;;;5111882;27;19995;-84
2021/09/01 00:17:37;;;;;;;;;;;15.80;99.90;;;;;;5130654;27;20002;-84
2021/09/01 00:20:04;;;;;;;;;;;15.80;99.90;;;;;;5084317;27;20006;-84
2021/09/01 00:22:30;;;;;;;;;;;15.80;99.90;;;;;;5102266;27;19919;-84
2021/09/01 00:24:55;;;;;;;;;;;15.80;99.90;;;;;;5085116;27;19930;-84
2021/09/01 00:27:21;;;;;;;;;;;15.80;99.90;;;;;;5078241;27;19926;-84
2021/09/01 00:29:46;;;;;;;;;;;15.80;99.90;;;;;;5113576;27;19927;-84
2021/09/01 00:32:13;;;;;;;;;;;15.80;99.90;;;;;;5098573;27;19975;-84
2021/09/01 00:34:38;;;;;;;;;;;15.70;99.90;;;;;;5096623;27;19927;-84
2021/09/01 00:37:04;;;;;;;;;;;15.70;99.90;;;;;;5114374;27;19926;-83
2021/09/01 00:39:29;;;;;;;;;;;15.70;99.90;;;;;;5098831;27;19919;-84
2021/09/01 00:41:57;;;;;;;;;;;15.80;99.90;;;;;;5101184;27;19919;-84
2021/09/01 00:44:24;;;;;;;;;;;15.80;99.90;;;;;;5095413;27;19938;-85
2021/09/01 00:46:56;;;;;;;;;;;15.70;99.90;;;;;;5124765;27;20278;-84
2021/09/01 00:49:22;;;;;;;;;;;15.70;99.90;;;;;;5132046;27;20472;-83
2021/09/01 00:51:49;;;;;;;;;;;15.70;99.90;;;;;;5094647;27;19927;-84
2021/09/01 00:54:15;;;;;;;;;;;15.70;99.90;;;;;;5095580;27;19972;-85
2021/09/01 00:56:42;;;;;;;;;;;15.70;99.90;;;;;;5079543;27;19966;-85
2021/09/01 00:59:08;;;;;;;;;;;15.70;99.90;;;;;;5094632;27;19958;-85
2021/09/01 01:01:35;;;;;;;;;;;15.70;99.90;;;;;;5103468;27;19962;-84
2021/09/01 01:04:00;;;;;;;;;;;15.70;99.90;;;;;;5115204;27;19915;-84
2021/09/01 01:06:28;;;;;;;;;;;15.70;99.90;;;;;;5089183;27;19930;-85
2021/09/01 01:08:54;;;;;;;;;;;15.70;99.90;;;;;;5094858;27;20022;-85
2021/09/01 01:11:20;;;;;;;;;;;15.70;99.90;;;;;;5100509;27;19971;-84
2021/09/01 01:13:46;;;;;;;;;;;15.70;99.90;;;;;;5114713;27;19919;-85
2021/09/01 01:16:13;;;;;;;;;;;15.70;99.90;;;;;;5088214;27;19979;-84
2021/09/01 01:18:40;;;;;;;;;;;15.70;99.90;;;;;;5114663;27;20703;-83
2021/09/01 01:21:06;;;;;;;;;;;15.70;99.90;;;;;;5101721;27;20294;-84
2021/09/01 01:23:32;;;;;;;;;;;15.70;99.90;;;;;;5115056;27;19923;-84
2021/09/01 01:25:57;;;;;;;;;;;15.70;99.90;;;;;;5099932;27;20023;-84
2021/09/01 01:28:23;;;;;;;;;;;15.70;99.90;;;;;;5094713;28;20319;-85
2021/09/01 01:30:49;;;;;;;;;;;15.70;99.90;;;;;;5101581;27;20574;-85
2021/09/01 01:33:14;;;;;;;;;;;15.70;99.90;;;;;;5076987;28;19945;-83
2021/09/01 01:35:42;;;;;;;;;;;15.70;99.90;;;;;;5121816;27;19923;-83
2021/09/01 01:38:09;;;;;;;;;;;15.70;99.90;;;;;;5097524;28;19950;-84
2021/09/01 01:40:35;;;;;;;;;;;15.70;99.90;;;;;;5104494;27;19919;-84
2021/09/01 01:43:01;;;;;;;;;;;15.70;99.90;;;;;;5099960;28;19923;-84
2021/09/01 01:45:35;;;;;;;;;;;15.70;99.90;;;;;;5077942;27;19924;-84
2021/09/01 01:48:01;;;;;;;;;;;15.70;99.90;;;;;;5114953;27;20334;-85
2021/09/01 01:50:27;;;;;;;;;;;15.70;99.90;;;;;;5105015;28;20651;-84
2021/09/01 01:52:52;;;;;;;;;;;15.70;99.90;;;;;;5093897;28;19924;-84
2021/09/01 01:55:18;;;;;;;;;;;15.70;99.90;;;;;;5077514;28;19923;-85
2021/09/01 01:57:43;;;;;;;;;;;15.60;99.90;;;;;;5087164;27;19923;-85
2021/09/01 02:00:09;;;;;;;;;;;15.60;99.90;;;;;;5089663;28;19919;-84
2021/09/01 02:02:35;;;;;;;;;;;15.60;99.90;;;;;;5102124;27;19972;-84
2021/09/01 02:05:00;;;;;;;;;;;15.60;99.90;;;;;;5114501;27;19968;-85
2021/09/01 02:07:27;;;;;;;;;;;15.60;99.90;;;;;;5102055;27;19923;-83
2021/09/01 02:09:52;;;;;;;;;;;15.60;99.90;;;;;;5114908;27;20014;-84
2021/09/01 02:12:18;;;;;;;;;;;15.60;99.90;;;;;;5110685;27;20375;-84
2021/09/01 02:14:43;;;;;;;;;;;15.60;99.90;;;;;;5098367;27;19923;-84
2021/09/01 02:17:09;;;;;;;;;;;15.60;99.90;;;;;;5083098;27;20435;-83
2021/09/01 02:19:34;;;;;;;;;;;15.70;99.90;;;;;;5085908;27;20006;-84
2021/09/01 02:22:00;;;;;;;;;;;15.70;99.90;;;;;;5124411;27;19923;-84
2021/09/01 02:24:26;;;;;;;;;;;15.70;99.90;;;;;;5082065;27;21488;-83
2021/09/01 02:26:51;;;;;;;;;;;15.70;99.90;;;;;;5098000;27;20428;-84
2021/09/01 02:29:17;;;;;;;;;;;15.70;99.90;;;;;;5098243;27;19919;-83
2021/09/01 02:31:43;;;;;;;;;;;15.70;99.90;;;;;;5097842;27;20022;-84
2021/09/01 02:34:08;;;;;;;;;;;15.70;99.90;;;;;;5113595;27;19944;-83
2021/09/01 02:36:34;;;;;;;;;;;15.70;99.90;;;;;;5108218;27;19920;-84
2021/09/01 02:39:00;;;;;;;;;;;15.70;99.90;;;;;;5094475;27;19927;-83
2021/09/01 02:41:25;;;;;;;;;;;15.70;99.90;;;;;;5117022;27;19929;-84
2021/09/01 02:43:51;;;;;;;;;;;15.70;99.90;;;;;;5087977;27;20290;-84
2021/09/01 02:46:17;;;;;;;;;;;15.70;99.90;;;;;;5097298;27;19924;-83
2021/09/01 02:48:43;;;;;;;;;;;15.80;99.90;;;;;;5091792;27;19970;-84
2021/09/01 02:51:08;;;;;;;;;;;15.70;99.90;;;;;;5081874;28;20002;-84
2021/09/01 02:53:34;;;;;;;;;;;15.70;99.90;;;;;;5086712;27;20430;-84
2021/09/01 02:56:00;;;;;;;;;;;15.70;99.90;;;;;;5114000;27;19915;-84
2021/09/01 02:58:25;;;;;;;;;;;15.70;99.90;;;;;;5106026;28;19930;-84
2021/09/01 03:00:51;;;;;;;;;;;15.70;99.90;;;;;;5078017;28;19939;-84
2021/09/01 03:03:16;;;;;;;;;;;15.70;99.90;;;;;;5083135;27;19962;-84
2021/09/01 03:05:42;;;;;;;;;;;15.70;99.90;;;;;;5095259;28;20286;-84
2021/09/01 03:08:08;;;;;;;;;;;15.70;99.90;;;;;;5076287;28;19969;-85
2021/09/01 03:10:34;;;;;;;;;;;15.70;99.90;;;;;;5110888;28;19927;-83
2021/09/01 03:12:59;;;;;;;;;;;15.70;99.90;;;;;;5079230;27;20318;-84
2021/09/01 03:15:25;;;;;;;;;;;15.70;99.90;;;;;;5113771;27;19930;-84
2021/09/01 03:17:51;;;;;;;;;;;15.70;99.90;;;;;;5098645;27;19926;-84
2021/09/01 03:20:16;;;;;;;;;;;15.70;99.90;;;;;;5110947;28;19919;-84
2021/09/01 03:22:42;;;;;;;;;;;15.70;99.90;;;;;;5107651;27;19924;-85
2021/09/01 03:25:07;;;;;;;;;;;15.70;99.90;;;;;;5092211;28;19923;-84
2021/09/01 03:27:33;;;;;;;;;;;15.70;99.90;;;;;;5093695;28;19931;-84
2021/09/01 03:29:59;;;;;;;;;;;15.70;99.90;;;;;;5114416;27;19971;-84
2021/09/01 03:32:24;;;;;;;;;;;15.60;99.90;;;;;;5093439;28;19976;-84
2021/09/01 03:34:50;;;;;;;;;;;15.60;99.90;;;;;;5124627;27;19923;-85
2021/09/01 03:37:15;;;;;;;;;;;15.60;99.90;;;;;;5096227;27;19975;-84
2021/09/01 03:39:41;;;;;;;;;;;15.60;99.90;;;;;;5112224;27;19923;-84
2021/09/01 03:42:07;;;;;;;;;;;15.60;99.90;;;;;;5096902;27;20014;-84
2021/09/01 03:44:32;;;;;;;;;;;15.60;99.90;;;;;;5101566;28;20623;-84
2021/09/01 03:46:58;;;;;;;;;;;15.60;99.90;;;;;;5092977;28;19924;-83
2021/09/01 03:49:24;;;;;;;;;;;15.60;99.90;;;;;;5078236;27;19920;-84
2021/09/01 03:51:49;;;;;;;;;;;15.60;99.90;;;;;;5084405;27;19927;-83
2021/09/01 03:54:15;;;;;;;;;;;15.60;99.90;;;;;;5115891;27;19919;-84
2021/09/01 03:56:41;;;;;;;;;;;15.60;99.90;;;;;;5116893;27;19966;-85
2021/09/01 03:59:06;;;;;;;;;;;15.60;99.90;;;;;;5110080;27;19920;-83
2021/09/01 04:01:32;;;;;;;;;;;15.60;99.90;;;;;;5116591;27;19923;-83
2021/09/01 04:04:00;;;;;;;;;;;15.60;99.90;;;;;;5112101;27;19923;-83
2021/09/01 04:06:25;;;;;;;;;;;15.60;99.90;;;;;;5096479;27;19924;-85
2021/09/01 04:08:51;;;;;;;;;;;15.60;99.90;;;;;;5097540;27;19924;-84
2021/09/01 04:11:16;;;;;;;;;;;15.60;99.90;;;;;;5099101;27;19924;-84
2021/09/01 04:13:42;;;;;;;;;;;15.60;99.90;;;;;;5079019;27;19924;-85
2021/09/01 04:16:07;;;;;;;;;;;15.60;99.90;;;;;;5079348;27;19930;-84
2021/09/01 04:18:33;;;;;;;;;;;15.60;99.90;;;;;;5101874;27;19922;-84
2021/09/01 04:20:59;;;;;;;;;;;15.60;99.90;;;;;;5096654;27;19920;-84
2021/09/01 04:23:24;;;;;;;;;;;15.60;99.90;;;;;;5094023;27;19972;-85
2021/09/01 04:25:50;;;;;;;;;;;15.60;99.90;;;;;;5079313;27;20279;-84
2021/09/01 04:28:15;;;;;;;;;;;15.60;99.90;;;;;;5112686;27;19920;-83
2021/09/01 04:30:41;;;;;;;;;;;15.60;99.90;;;;;;5091930;27;19927;-83
2021/09/01 04:33:06;;;;;;;;;;;15.60;99.90;;;;;;5114916;27;19974;-84
2021/09/01 04:35:32;;;;;;;;;;;15.60;99.90;;;;;;5087343;27;19923;-84
2021/09/01 04:37:58;;;;;;;;;;;15.60;99.90;;;;;;5095761;27;19923;-83
2021/09/01 04:40:23;;;;;;;;;;;15.60;99.90;;;;;;5114333;27;19958;-84
2021/09/01 04:42:49;;;;;;;;;;;15.60;99.90;;;;;;5099050;27;20010;-83
2021/09/01 04:45:14;;;;;;;;;;;15.60;99.90;;;;;;5106716;27;20333;-84
2021/09/01 04:47:40;;;;;;;;;;;15.60;99.90;;;;;;5078679;27;20362;-84
2021/09/01 04:50:06;;;;;;;;;;;15.60;99.90;;;;;;5075730;28;19924;-84
2021/09/01 04:53:08;;;;;;;;;;;15.60;99.90;;;;;;5112043;28;19924;-84
2021/09/01 04:55:56;;;;;;;;;;;15.60;99.90;;;;;;5098219;28;19936;-83
2021/09/01 05:05:19;;;;;;;;;;;15.60;99.90;;;;;;5124059;22;19945;-93
2021/09/01 05:07:45;;;;;;;;;;;15.60;99.90;;;;;;5057373;28;20014;-92
2021/09/01 05:10:11;;;;;;;;;;;15.60;99.90;;;;;;5063568;27;19970;-91
2021/09/01 05:12:37;;;;;;;;;;;15.60;99.90;;;;;;5113825;27;19948;-90
2021/09/01 05:15:03;;;;;;;;;;;15.60;99.90;;;;;;5068066;28;19923;-90
2021/09/01 05:17:28;;;;;;;;;;;15.60;99.90;;;;;;5076670;28;19931;-91
2021/09/01 05:19:54;;;;;;;;;;;15.60;99.90;;;;;;5075280;28;19920;-93
2021/09/01 05:22:21;;;;;;;;;;;15.60;99.90;;;;;;5070080;28;19919;-92
2021/09/01 05:24:55;;;;;;;;;;;15.60;99.90;;;;;;5076965;28;19924;-91
2021/09/01 05:27:21;;;;;;;;;;;15.60;99.90;;;;;;5056975;28;19941;-91
2021/09/01 05:29:48;;;;;;;;;;;15.60;99.90;;;;;;5086425;28;19919;-90
2021/09/01 05:32:18;;;;;;;;;;;15.70;99.90;;;;;;5111544;28;19927;-91
2021/09/01 05:34:44;;;;;;;;;;;15.70;99.90;;;;;;5087922;28;19959;-91
2021/09/01 05:37:12;;;;;;;;;;;15.70;99.90;;;;;;5072350;28;19924;-91
2021/09/01 05:39:40;;;;;;;;;;;15.70;99.90;;;;;;5060062;28;19924;-91
2021/09/01 05:42:05;;;;;;;;;;;15.70;99.90;;;;;;5062843;28;19931;-92
2021/09/01 05:44:31;;;;;;;;;;;15.70;99.90;;;;;;5073523;28;19920;-91
2021/09/01 05:46:58;;;;;;;;;;;15.70;99.90;;;;;;5052738;28;20011;-91
2021/09/01 05:49:24;;;;;;;;;;;15.70;99.90;;;;;;5052709;28;19931;-91
2021/09/01 05:51:49;;;;;;;;;;;15.80;99.90;;;;;;5093691;28;19927;-91
2021/09/01 05:54:15;;;;;;;;;;;15.80;99.90;;;;;;5058964;28;19963;-91
2021/09/01 05:56:43;;;;;;;;;;;15.80;99.90;;;;;;5076463;28;19922;-91
2021/09/01 05:59:12;;;;;;;;;;;15.80;99.90;;;;;;5078325;28;19920;-92
2021/09/01 06:01:40;;;;;;;;;;;15.80;99.90;;;;;;5096393;28;20400;-92
2021/09/01 06:04:07;;;;;;;;;;;15.80;99.90;;;;;;5078925;28;19930;-91
2021/09/01 06:06:35;;;;;;;;;;;15.80;99.90;;;;;;5079718;28;20020;-91
2021/09/01 06:09:01;;;;;;;;;;;15.80;99.90;;;;;;5095944;28;19916;-92
2021/09/01 06:11:27;;;;;;;;;;;15.90;99.90;;;;;;5096020;28;19931;-91
2021/09/01 06:13:52;;;;;;;;;;;15.80;99.90;;;;;;5078915;28;19988;-91
2021/09/01 06:16:18;;;;;;;;;;;15.90;99.90;;;;;;5076932;28;19923;-91
2021/09/01 06:18:44;;;;;;;;;;;15.90;99.90;;;;;;5058530;28;19920;-91
2021/09/01 06:21:09;;;;;;;;;;;15.90;99.90;;;;;;5074812;28;20366;-92
2021/09/01 06:23:35;;;;;;;;;;;15.90;99.90;;;;;;5062115;28;19927;-92
2021/09/01 06:26:02;;;;;;;;;;;15.90;99.90;;;;;;5082403;28;20010;-91
2021/09/01 06:28:28;;;;;;;;;;;16.00;99.90;;;;;;5062180;28;19927;-91
2021/09/01 06:30:53;;;;;;;;;;;16.00;99.90;;;;;;5078373;28;19923;-91
2021/09/01 06:33:19;;;;;;;;;;;16.00;99.90;;;;;;5078748;28;19969;-91
2021/09/01 06:35:47;;;;;;;;;;;16.00;99.90;;;;;;5058475;28;19924;-92
2021/09/01 06:38:12;;;;;;;;;;;16.00;99.90;;;;;;5075322;28;19921;-91
2021/09/01 06:40:38;;;;;;;;;;;16.00;99.90;;;;;;5077959;28;19981;-91
2021/09/01 06:43:04;;;;;;;;;;;16.00;99.90;;;;;;5078316;28;19970;-92
2021/09/01 06:45:29;;;;;;;;;;;16.10;99.90;;;;;;5095313;28;19927;-92
2021/09/01 06:47:55;;;;;;;;;;;16.10;99.90;;;;;;5083887;28;20302;-92
2021/09/01 06:50:22;;;;;;;;;;;16.10;99.90;;;;;;5072749;28;19920;-92
2021/09/01 06:52:48;;;;;;;;;;;16.10;99.90;;;;;;5075199;28;19928;-91
2021/09/01 06:55:14;;;;;;;;;;;16.10;99.90;;;;;;5071933;28;19945;-91
2021/09/01 06:57:40;;;;;;;;;;;16.20;99.90;;;;;;5085330;28;19924;-92
2021/09/01 07:00:08;;;;;;;;;;;16.20;99.90;;;;;;5071655;28;19927;-92
2021/09/01 07:02:34;;;;;;;;;;;16.20;99.90;;;;;;5070548;28;19959;-94
2021/09/01 07:04:59;;;;;;;;;;;16.20;99.90;;;;;;5070560;28;20454;-92
2021/09/01 07:07:25;;;;;;;;;;;16.20;99.90;;;;;;5075486;28;19969;-96
2021/09/01 07:09:51;;;;;;;;;;;16.30;99.90;;;;;;5081782;28;19941;-91
2021/09/01 07:12:17;;;;;;;;;;;16.30;99.90;;;;;;5068168;28;19924;-91
2021/09/01 07:14:42;;;;;;;;;;;16.30;99.90;;;;;;5055490;28;19927;-89
2021/09/01 07:17:08;;;;;;;;;;;16.30;99.90;;;;;;5077833;28;19927;-90
2021/09/01 07:19:33;;;;;;;;;;;16.30;99.90;;;;;;5056870;28;20375;-91
2021/09/01 07:21:59;;;;;;;;;;;16.30;99.90;;;;;;5073410;28;19946;-91
2021/09/01 07:24:25;;;;;;;;;;;16.30;99.90;;;;;;5072926;27;19957;-90
2021/09/01 07:26:50;;;;;;;;;;;16.30;99.90;;;;;;5077685;27;19927;-90
2021/09/01 07:29:16;;;;;;;;;;;16.30;99.90;;;;;;5083280;28;19920;-91
2021/09/01 07:31:41;;;;;;;;;;;16.40;99.90;;;;;;5065726;27;19935;-92
2021/09/01 07:34:07;;;;;;;;;;;16.40;99.90;;;;;;5086172;27;19923;-93
2021/09/01 07:36:33;;;;;;;;;;;16.40;99.90;;;;;;5063400;28;19924;-95
2021/09/01 07:38:58;;;;;;;;;;;16.40;99.90;;;;;;5055155;28;19965;-93
2021/09/01 07:41:24;;;;;;;;;;;16.40;99.90;;;;;;5071006;28;20298;-94
2021/09/01 07:43:49;;;;;;;;;;;16.50;99.90;;;;;;5061743;28;19919;-94
2021/09/01 07:46:16;;;;;;;;;;;16.50;99.90;;;;;;5092347;28;19926;-95
2021/09/01 07:48:41;;;;;;;;;;;16.50;99.90;;;;;;5076602;28;19923;-94
2021/09/01 07:51:07;;;;;;;;;;;16.60;99.90;;;;;;5057670;28;20378;-94
2021/09/01 07:53:32;;;;;;;;;;;16.60;99.90;;;;;;5074291;28;19966;-91
2021/09/01 07:55:58;;;;;;;;;;;16.70;99.90;;;;;;5077201;28;19974;-91
2021/09/01 07:58:24;;;;;;;;;;;16.60;99.90;;;;;;5077043;28;20496;-93
2021/09/01 08:00:49;;;;;;;;;;;16.70;99.90;;;;;;5076800;28;20324;-92
2021/09/01 08:03:15;;;;;;;;;;;16.70;99.90;;;;;;5067881;28;19924;-91
2021/09/01 08:05:40;;;;;;;;;;;16.70;99.90;;;;;;5056878;28;19977;-92
2021/09/01 08:08:06;;;;;;;;;;;16.70;99.90;;;;;;5056164;28;19950;-91
2021/09/01 08:10:31;;;;;;;;;;;16.70;99.90;;;;;;5091675;28;19923;-91
2021/09/01 08:12:57;;;;;;;;;;;16.70;99.90;;;;;;5059236;28;20386;-92
2021/09/01 08:15:23;;;;;;;;;;;16.80;99.90;;;;;;5076267;28;19943;-91
2021/09/01 08:17:49;;;;;;;;;;;16.80;99.90;;;;;;5076172;28;20371;-91
2021/09/01 08:20:14;;;;;;;;;;;16.80;99.90;;;;;;5075845;28;19963;-91
2021/09/01 08:22:40;;;;;;;;;;;16.90;99.90;;;;;;5076359;28;19924;-91
2021/09/01 08:25:06;;;;;;;;;;;16.90;99.90;;;;;;5076131;28;19920;-92
2021/09/01 08:27:32;;;;;;;;;;;16.90;99.90;;;;;;5056835;28;19997;-91
2021/09/01 08:29:57;;;;;;;;;;;17.00;99.90;;;;;;5069736;28;19931;-91
2021/09/01 08:32:23;;;;;;;;;;;17.00;99.90;;;;;;5054466;28;20065;-89
2021/09/01 08:34:49;;;;;;;;;;;17.00;99.90;;;;;;5070659;28;19920;-92
2021/09/01 08:37:14;;;;;;;;;;;17.10;99.90;;;;;;5059150;28;19943;-92
2021/09/01 08:39:40;;;;;;;;;;;17.10;99.90;;;;;;5063997;28;19956;-91
2021/09/01 08:42:06;;;;;;;;;;;17.10;99.90;;;;;;5055744;28;19955;-91
2021/09/01 08:44:31;;;;;;;;;;;17.10;99.90;;;;;;5065595;28;19927;-91
2021/09/01 08:46:59;;;;;;;;;;;17.20;99.90;;;;;;5062614;27;20439;-90
2021/09/01 08:49:26;;;;;;;;;;;17.20;99.90;;;;;;5089320;27;20026;-90
2021/09/01 08:51:52;;;;;;;;;;;17.30;99.90;;;;;;5093386;27;19928;-91
2021/09/01 08:54:18;;;;;;;;;;;17.30;99.90;;;;;;5076113;27;19927;-91
2021/09/01 08:56:43;;;;;;;;;;;17.30;99.90;;;;;;5078345;27;19927;-91
2021/09/01 08:59:09;;;;;;;;;;;17.30;99.90;;;;;;5058595;27;20371;-89
2021/09/01 09:01:42;;;;;;;;;;;17.30;99.90;;;;;;5076718;27;19924;-91
2021/09/01 09:04:13;;;;;;;;;;;17.40;99.90;;;;;;5092770;27;19934;-91
2021/09/01 09:06:46;;;;;;;;;;;17.40;99.90;;;;;;5072841;28;20442;-91
2021/09/01 09:09:13;;;;;;;;;;;17.50;99.90;;;;;;5072928;28;19970;-91
2021/09/01 09:11:39;;;;;;;;;;;17.60;99.90;;;;;;5092254;27;20501;-93
2021/09/01 09:14:16;;;;;;;;;;;17.60;99.90;;;;;;5075866;28;19962;-91
2021/09/01 09:16:45;;;;;;;;;;;17.60;99.90;;;;;;5091292;28;19923;-91
2021/09/01 09:19:12;;;;;;;;;;;17.60;99.90;;;;;;5076860;28;19924;-91
2021/09/01 09:21:38;;;;;;;;;;;17.60;99.90;;;;;;5074861;28;20101;-92
2021/09/01 09:24:17;;;;;;;;;;;17.50;99.90;;;;;;5075386;27;20047;-91
2021/09/01 09:26:43;;;;;;;;;;;17.60;99.90;;;;;;5098148;28;20319;-92
2021/09/01 09:29:10;;;;;;;;;;;17.60;99.90;;;;;;5076509;28;20018;-91
2021/09/01 09:31:36;;;;;;;;;;;17.60;99.90;;;;;;5075783;28;19936;-92
2021/09/01 09:34:05;;;;;;;;;;;17.70;99.90;;;;;;5074450;28;19924;-93
2021/09/01 09:36:37;;;;;;;;;;;17.70;99.90;;;;;;5048901;28;20232;-92
2021/09/01 09:39:12;;;;;;;;;;;17.70;99.90;;;;;;5068238;28;19923;-93
2021/09/01 09:41:37;;;;;;;;;;;17.70;99.90;;;;;;5054988;28;20387;-92
2021/09/01 09:44:04;;;;;;;;;;;17.80;99.90;;;;;;5057441;28;19923;-92
2021/09/01 09:46:30;;;;;;;;;;;17.80;99.90;;;;;;5073398;28;20390;-92
2021/09/01 09:49:06;;;;;;;;;;;17.80;99.90;;;;;;5070834;28;19924;-93
2021/09/01 09:51:36;;;;;;;;;;;17.90;99.90;;;;;;5082025;28;19928;-93
2021/09/01 09:54:12;;;;;;;;;;;17.90;99.90;;;;;;5069967;28;20299;-93
2021/09/01 09:56:38;;;;;;;;;;;17.90;99.90;;;;;;5058951;28;19923;-93
2021/09/01 09:59:04;;;;;;;;;;;18.00;99.90;;;;;;5074987;28;19972;-93
2021/09/01 10:01:29;;;;;;;;;;;18.00;99.90;;;;;;5055494;28;20024;-93
2021/09/01 10:03:56;;;;;;;;;;;18.00;99.90;;;;;;5071833;28;19971;-94
2021/09/01 10:06:22;;;;;;;;;;;18.00;99.90;;;;;;5068963;28;20749;-93
2021/09/01 10:08:49;;;;;;;;;;;17.90;99.90;;;;;;5056191;28;19962;-94
2021/09/01 10:11:16;;;;;;;;;;;17.90;99.90;;;;;;5073415;28;19941;-93
2021/09/01 10:13:42;;;;;;;;;;;17.90;99.90;;;;;;5092970;28;19928;-96
2021/09/01 10:16:14;;;;;;;;;;;17.80;99.90;;;;;;5093061;28;19922;-94
2021/09/01 10:18:41;;;;;;;;;;;17.80;99.90;;;;;;5087680;28;19924;-96
2021/09/01 10:21:07;;;;;;;;;;;17.80;99.90;;;;;;5054905;28;19920;-96
2021/09/01 10:23:43;;;;;;;;;;;17.80;99.90;;;;;;5061381;28;19920;-96
2021/09/01 10:26:28;;;;;;;;;;;17.80;99.90;;;;;;5088556;28;20019;-96
2021/09/01 10:28:54;;;;;;;;;;;17.80;99.90;;;;;;5075182;28;19931;-96
2021/09/01 10:31:21;;;;;;;;;;;17.80;99.90;;;;;;5074909;28;19921;-96
2021/09/01 10:34:00;;;;;;;;;;;17.80;99.90;;;;;;5078175;28;19927;-93
2021/09/01 10:36:29;;;;;;;;;;;17.80;99.90;;;;;;5083162;28;19923;-92
2021/09/01 10:38:55;;;;;;;;;;;17.80;99.90;;;;;;5081603;28;19919;-93
2021/09/01 10:41:27;;;;;;;;;;;17.80;99.90;;;;;;5064499;28;19931;-92
2021/09/01 10:44:05;;;;;;;;;;;17.90;99.90;;;;;;5071073;28;19928;-91
2021/09/01 10:46:49;;;;;;;;;;;17.90;99.90;;;;;;5076648;28;19931;-91
2021/09/01 10:49:15;;;;;;;;;;;17.80;99.90;;;;;;5091051;28;19973;-94
2021/09/01 10:51:48;;;;;;;;;;;17.80;99.90;;;;;;5081637;28;19927;-92
2021/09/01 10:54:29;;;;;;;;;;;17.80;99.90;;;;;;5074904;28;20109;-91
2021/09/01 10:56:55;;;;;;;;;;;17.80;99.90;;;;;;5059344;28;20371;-91
2021/09/01 10:59:25;;;;;;;;;;;17.80;99.90;;;;;;5087211;28;19920;-91
2021/09/01 11:02:09;;;;;;;;;;;17.90;99.90;;;;;;5076301;28;19927;-89
2021/09/01 11:04:35;;;;;;;;;;;17.90;99.90;;;;;;5072559;28;19924;-90
2021/09/01 11:07:02;;;;;;;;;;;18.00;99.90;;;;;;5092291;28;19980;-90
2021/09/01 11:09:27;;;;;;;;;;;18.00;99.90;;;;;;5076223;28;20400;-91
2021/09/01 11:11:57;;;;;;;;;;;18.10;99.90;;;;;;5058876;28;19928;-91
2021/09/01 11:14:30;;;;;;;;;;;18.10;99.90;;;;;;5075237;28;19931;-91
2021/09/01 11:16:56;;;;;;;;;;;18.20;99.90;;;;;;5075869;28;20320;-91
2021/09/01 11:19:21;;;;;;;;;;;18.20;99.90;;;;;;5067095;28;19919;-91
2021/09/01 11:21:47;;;;;;;;;;;18.30;99.90;;;;;;5076398;28;20298;-91
2021/09/01 11:24:14;;;;;;;;;;;18.30;99.90;;;;;;5075109;28;19969;-91
2021/09/01 11:26:40;;;;;;;;;;;18.30;99.90;;;;;;5084817;28;19951;-92
2021/09/01 11:29:07;;;;;;;;;;;18.40;99.90;;;;;;5091454;28;19924;-91
2021/09/01 11:31:34;;;;;;;;;;;18.40;99.90;;;;;;5056405;27;19928;-91
2021/09/01 11:33:59;;;;;;;;;;;18.40;99.90;;;;;;5069670;28;19923;-92
2021/09/01 11:36:29;;;;;;;;;;;18.50;99.90;;;;;;5073058;28;19924;-92
2021/09/01 11:38:58;;;;;;;;;;;18.50;99.90;;;;;;5089333;28;19919;-91
2021/09/01 11:41:24;;;;;;;;;;;18.50;99.90;;;;;;5068699;28;19924;-92
2021/09/01 11:44:10;;;;;;;;;;;18.50;99.90;;;;;;5059083;28;19923;-91
2021/09/01 11:46:36;;;;;;;;;;;18.60;99.90;;;;;;5086248;28;19924;-90
2021/09/01 11:49:05;;;;;;;;;;;18.60;99.90;;;;;;5051173;28;19924;-91
2021/09/01 11:51:31;;;;;;;;;;;18.70;99.90;;;;;;5089277;28;20018;-92
2021/09/01 11:53:57;;;;;;;;;;;18.70;99.90;;;;;;5063287;28;20019;-91
2021/09/01 11:56:23;;;;;;;;;;;18.70;99.90;;;;;;5060882;28;19924;-91
2021/09/01 11:58:59;;;;;;;;;;;18.70;99.90;;;;;;5064211;28;20042;-91
2021/09/01 12:01:26;;;;;;;;;;;18.70;99.90;;;;;;5071697;28;20344;-91
2021/09/01 12:03:52;;;;;;;;;;;18.60;99.90;;;;;;5068679;28;19935;-91
2021/09/01 12:06:17;;;;;;;;;;;18.50;99.90;;;;;;5068000;28;20252;-91
2021/09/01 12:08:44;;;;;;;;;;;18.50;99.90;;;;;;5072639;28;20272;-91
2021/09/01 12:11:11;;;;;;;;;;;18.40;99.90;;;;;;5087657;28;19924;-90
2021/09/01 12:13:40;;;;;;;;;;;18.40;99.90;;;;;;5073309;28;19927;-91
2021/09/01 12:16:06;;;;;;;;;;;18.30;99.90;;;;;;5057499;28;19920;-91
2021/09/01 12:18:50;;;;;;;;;;;18.30;99.90;;;;;;5066126;28;20037;-91
2021/09/01 12:21:17;;;;;;;;;;;18.30;99.90;;;;;;5090874;27;20337;-90
2021/09/01 12:23:43;;;;;;;;;;;18.30;99.90;;;;;;5076129;28;19928;-90
2021/09/01 12:26:09;;;;;;;;;;;18.30;99.90;;;;;;5071948;27;19924;-90
2021/09/01 12:29:01;;;;;;;;;;;18.30;99.90;;;;;;5070314;27;19920;-91
2021/09/01 12:31:26;;;;;;;;;;;18.30;99.90;;;;;;5090795;28;19915;-91
2021/09/01 12:33:52;;;;;;;;;;;18.30;99.90;;;;;;5070053;28;20033;-91
2021/09/01 12:36:27;;;;;;;;;;;18.30;99.90;;;;;;5061639;27;19981;-91
2021/09/01 12:38:56;;;;;;;;;;;18.30;99.90;;;;;;5068542;28;19955;-90
2021/09/01 12:41:23;;;;;;;;;;;18.30;99.90;;;;;;5066183;27;19941;-91
2021/09/01 12:44:01;;;;;;;;;;;18.40;99.90;;;;;;5096166;28;19979;-91
2021/09/01 12:46:26;;;;;;;;;;;18.40;99.90;;;;;;5090626;28;19947;-92
2021/09/01 12:48:52;;;;;;;;;;;18.50;99.90;;;;;;5083808;28;20000;-91
2021/09/01 12:51:20;;;;;;;;;;;18.50;99.90;;;;;;5083733;28;20256;-91
2021/09/01 12:53:46;;;;;;;;;;;18.50;99.90;;;;;;5086173;28;19920;-93
2021/09/01 12:56:12;;;;;;;;;;;18.50;99.90;;;;;;5058158;28;19930;-90
2021/09/01 12:58:37;;;;;;;;;;;18.50;99.90;;;;;;5072408;28;19924;-90
2021/09/01 13:01:03;;;;;;;;;;;18.40;99.90;;;;;;5067828;28;19931;-91
2021/09/01 13:03:29;;;;;;;;;;;18.40;99.90;;;;;;5038554;28;20022;-90
2021/09/01 13:05:54;;;;;;;;;;;18.30;99.90;;;;;;5059602;28;19920;-89
2021/09/01 13:08:20;;;;;;;;;;;18.30;99.90;;;;;;5064311;28;20013;-91
2021/09/01 13:10:46;;;;;;;;;;;18.30;99.90;;;;;;5059584;27;20054;-90
2021/09/01 13:13:12;;;;;;;;;;;18.30;99.90;;;;;;5075600;27;20347;-93
2021/09/01 13:15:37;;;;;;;;;;;18.30;99.90;;;;;;5055103;28;19931;-92
2021/09/01 13:18:03;;;;;;;;;;;18.30;99.90;;;;;;5089000;28;20421;-93
2021/09/01 13:20:29;;;;;;;;;;;18.20;99.90;;;;;;5087857;28;19924;-92
2021/09/01 13:22:55;;;;;;;;;;;18.10;99.90;;;;;;5054170;28;19931;-93
2021/09/01 13:25:21;;;;;;;;;;;18.20;99.90;;;;;;5093421;28;19919;-92
2021/09/01 13:27:46;;;;;;;;;;;18.20;99.90;;;;;;5083120;28;19920;-93
2021/09/01 13:30:12;;;;;;;;;;;18.20;99.90;;;;;;5066857;28;20263;-93
2021/09/01 13:32:38;;;;;;;;;;;18.10;99.90;;;;;;5088511;28;20004;-92
2021/09/01 13:35:04;;;;;;;;;;;18.10;99.90;;;;;;5085171;28;19924;-92
2021/09/01 13:37:30;;;;;;;;;;;18.10;99.90;;;;;;5078891;28;20063;-93
2021/09/01 13:39:56;;;;;;;;;;;18.10;99.90;;;;;;5088517;28;19927;-92
2021/09/01 13:42:21;;;;;;;;;;;18.10;99.90;;;;;;5051588;28;19920;-92
2021/09/01 13:44:47;;;;;;;;;;;18.10;99.90;;;;;;5089113;28;19938;-93
2021/09/01 13:47:13;;;;;;;;;;;18.10;99.90;;;;;;5065290;28;19920;-92
2021/09/01 13:49:38;;;;;;;;;;;18.10;99.90;;;;;;5067000;28;19928;-93
2021/09/01 13:52:04;;;;;;;;;;;18.10;99.90;;;;;;5070998;28;19939;-96
2021/09/01 13:54:30;;;;;;;;;;;18.10;99.90;;;;;;5039654;28;19920;-94
2021/09/01 13:56:57;;;;;;;;;;;18.10;99.90;;;;;;5071460;28;19928;-94
2021/09/01 13:59:23;;;;;;;;;;;18.10;99.90;;;;;;5063384;28;20446;-90
2021/09/01 14:01:48;;;;;;;;;;;18.10;99.90;;;;;;5062215;28;20015;-94
2021/09/01 14:04:15;;;;;;;;;;;18.10;99.90;;;;;;5037474;28;19924;-93
2021/09/01 14:06:41;;;;;;;;;;;18.00;99.90;;;;;;5054418;28;19978;-93
2021/09/01 14:09:08;;;;;;;;;;;18.10;99.90;;;;;;5047905;28;19923;-92
2021/09/01 14:11:34;;;;;;;;;;;18.10;99.90;;;;;;5051580;28;19958;-92
2021/09/01 14:13:59;;;;;;;;;;;18.10;99.90;;;;;;5064900;28;19946;-93
2021/09/01 14:16:25;;;;;;;;;;;18.00;99.90;;;;;;5078943;28;19928;-93
2021/09/01 14:18:51;;;;;;;;;;;18.00;99.90;;;;;;5079077;28;19916;-92
2021/09/01 14:21:18;;;;;;;;;;;18.00;99.90;;;;;;5070038;28;19965;-92